sensor_id;sensor_type;location;lat;lon;timestamp;P1;durP1;ratioP1;P2;durP2;ratioP2
4486;SDS011;2256;48.740;9.106;2022-07-29T00:01:07;1.70;;;1.60;;
4486;SDS011;2256;48.740;9.106;2022-07-29T00:03:34;1.40;;;1.30;;
4486;SDS011;2256;48.740;9.106;2022-07-29T00:06:01;3.27;;;2.83;;
4486;SDS011;2256;48.740;9.106;2022-07-29T00:08:29;2.20;;;1.63;;
4486;SDS011;2256;48.740;9.106;2022-07-29T00:10:56;1.60;;;1.50;;
4486;SDS011;2256;48.740;9.106;2022-07-29T00:13:23;2.80;;;2.40;;
4486;SDS011;2256;48.740;9.106;2022-07-29T00:15:50;2.80;;;2.37;;
4486;SDS011;2256;48.740;9.106;2022-07-29T00:18:17;2.80;;;1.97;;
4486;SDS011;2256;48.740;9.106;2022-07-29T00:20:43;1.93;;;1.70;;
4486;SDS011;2256;48.740;9.106;2022-07-29T00:23:10;1.77;;;1.37;;
4486;SDS011;2256;48.740;9.106;2022-07-29T00:25:39;2.30;;;2.10;;
4486;SDS011;2256;48.740;9.106;2022-07-29T00:28:05;2.17;;;1.97;;
4486;SDS011;2256;48.740;9.106;2022-07-29T00:30:32;3.10;;;1.80;;
4486;SDS011;2256;48.740;9.106;2022-07-29T00:32:59;7.37;;;2.20;;
4486;SDS011;2256;48.740;9.106;2022-07-29T00:35:26;2.73;;;2.03;;
4486;SDS011;2256;48.740;9.106;2022-07-29T00:38:11;2.00;;;1.60;;
4486;SDS011;2256;48.740;9.106;2022-07-29T00:40:40;4.20;;;1.93;;
4486;SDS011;2256;48.740;9.106;2022-07-29T00:43:08;1.33;;;1.20;;
4486;SDS011;2256;48.740;9.106;2022-07-29T00:45:35;2.37;;;2.17;;
4486;SDS011;2256;48.740;9.106;2022-07-29T00:48:02;3.07;;;2.00;;
4486;SDS011;2256;48.740;9.106;2022-07-29T00:50:30;4.30;;;2.47;;
4486;SDS011;2256;48.740;9.106;2022-07-29T00:52:58;1.40;;;1.30;;
4486;SDS011;2256;48.740;9.106;2022-07-29T00:55:25;3.13;;;1.73;;
4486;SDS011;2256;48.740;9.106;2022-07-29T00:57:53;3.00;;;2.20;;
4486;SDS011;2256;48.740;9.106;2022-07-29T01:00:22;2.20;;;1.97;;
4486;SDS011;2256;48.740;9.106;2022-07-29T01:02:50;3.77;;;1.83;;
4486;SDS011;2256;48.740;9.106;2022-07-29T01:05:18;3.37;;;2.17;;
4486;SDS011;2256;48.740;9.106;2022-07-29T01:07:46;2.13;;;2.00;;
4486;SDS011;2256;48.740;9.106;2022-07-29T01:10:15;2.67;;;2.43;;
4486;SDS011;2256;48.740;9.106;2022-07-29T01:12:43;2.93;;;2.20;;
4486;SDS011;2256;48.740;9.106;2022-07-29T01:15:14;1.70;;;1.60;;
4486;SDS011;2256;48.740;9.106;2022-07-29T01:17:42;1.60;;;1.50;;
4486;SDS011;2256;48.740;9.106;2022-07-29T01:20:12;2.10;;;1.97;;
4486;SDS011;2256;48.740;9.106;2022-07-29T01:22:52;1.73;;;1.50;;
4486;SDS011;2256;48.740;9.106;2022-07-29T01:25:49;1.33;;;1.23;;
4486;SDS011;2256;48.740;9.106;2022-07-29T01:31:30;3.90;;;1.77;;
4486;SDS011;2256;48.740;9.106;2022-07-29T01:34:02;1.53;;;1.33;;
4486;SDS011;2256;48.740;9.106;2022-07-29T01:36:32;2.80;;;1.30;;
4486;SDS011;2256;48.740;9.106;2022-07-29T01:39:06;2.13;;;1.93;;
4486;SDS011;2256;48.740;9.106;2022-07-29T01:41:38;2.47;;;1.47;;
4486;SDS011;2256;48.740;9.106;2022-07-29T01:44:11;1.33;;;1.23;;
4486;SDS011;2256;48.740;9.106;2022-07-29T01:46:42;1.73;;;1.53;;
4486;SDS011;2256;48.740;9.106;2022-07-29T01:49:20;1.23;;;1.10;;
4486;SDS011;2256;48.740;9.106;2022-07-29T01:51:52;1.40;;;1.30;;
4486;SDS011;2256;48.740;9.106;2022-07-29T01:54:25;2.40;;;2.13;;
4486;SDS011;2256;48.740;9.106;2022-07-29T01:56:56;2.10;;;1.33;;
4486;SDS011;2256;48.740;9.106;2022-07-29T01:59:27;1.83;;;1.27;;
4486;SDS011;2256;48.740;9.106;2022-07-29T02:01:57;2.57;;;2.37;;
4486;SDS011;2256;48.740;9.106;2022-07-29T02:04:24;4.20;;;1.77;;
4486;SDS011;2256;48.740;9.106;2022-07-29T02:06:54;1.53;;;1.43;;
4486;SDS011;2256;48.740;9.106;2022-07-29T02:09:23;1.50;;;1.40;;
4486;SDS011;2256;48.740;9.106;2022-07-29T02:11:52;3.40;;;1.67;;
4486;SDS011;2256;48.740;9.106;2022-07-29T02:14:21;1.30;;;1.20;;
4486;SDS011;2256;48.740;9.106;2022-07-29T02:16:51;0.90;;;0.90;;
4486;SDS011;2256;48.740;9.106;2022-07-29T02:19:21;1.67;;;1.57;;
4486;SDS011;2256;48.740;9.106;2022-07-29T02:21:51;1.90;;;1.47;;
4486;SDS011;2256;48.740;9.106;2022-07-29T02:24:20;3.37;;;2.23;;
4486;SDS011;2256;48.740;9.106;2022-07-29T02:26:50;1.30;;;1.20;;
4486;SDS011;2256;48.740;9.106;2022-07-29T02:29:19;1.00;;;0.97;;
4486;SDS011;2256;48.740;9.106;2022-07-29T02:31:48;1.57;;;1.40;;
4486;SDS011;2256;48.740;9.106;2022-07-29T02:34:19;2.00;;;1.80;;
4486;SDS011;2256;48.740;9.106;2022-07-29T02:36:47;1.30;;;1.20;;
4486;SDS011;2256;48.740;9.106;2022-07-29T02:39:15;3.17;;;1.47;;
4486;SDS011;2256;48.740;9.106;2022-07-29T02:41:43;6.87;;;2.30;;
4486;SDS011;2256;48.740;9.106;2022-07-29T02:44:13;2.23;;;1.57;;
4486;SDS011;2256;48.740;9.106;2022-07-29T02:46:42;2.03;;;1.80;;
4486;SDS011;2256;48.740;9.106;2022-07-29T02:49:15;1.43;;;1.33;;
4486;SDS011;2256;48.740;9.106;2022-07-29T02:51:49;1.43;;;1.33;;
4486;SDS011;2256;48.740;9.106;2022-07-29T02:54:22;1.33;;;1.23;;
4486;SDS011;2256;48.740;9.106;2022-07-29T02:56:52;1.47;;;1.00;;
4486;SDS011;2256;48.740;9.106;2022-07-29T02:59:22;1.10;;;1.10;;
4486;SDS011;2256;48.740;9.106;2022-07-29T03:01:51;1.20;;;1.10;;
4486;SDS011;2256;48.740;9.106;2022-07-29T03:04:21;1.90;;;1.30;;
4486;SDS011;2256;48.740;9.106;2022-07-29T03:06:50;2.80;;;1.87;;
4486;SDS011;2256;48.740;9.106;2022-07-29T03:09:19;1.60;;;1.50;;
4486;SDS011;2256;48.740;9.106;2022-07-29T03:11:46;1.20;;;1.20;;
4486;SDS011;2256;48.740;9.106;2022-07-29T03:14:14;2.43;;;1.77;;
4486;SDS011;2256;48.740;9.106;2022-07-29T03:16:42;1.60;;;1.50;;
4486;SDS011;2256;48.740;9.106;2022-07-29T03:19:10;7.33;;;1.77;;
4486;SDS011;2256;48.740;9.106;2022-07-29T03:21:38;1.40;;;1.30;;
4486;SDS011;2256;48.740;9.106;2022-07-29T03:24:06;3.80;;;2.13;;
4486;SDS011;2256;48.740;9.106;2022-07-29T03:26:33;1.30;;;1.20;;
4486;SDS011;2256;48.740;9.106;2022-07-29T03:29:00;2.10;;;1.37;;
4486;SDS011;2256;48.740;9.106;2022-07-29T03:31:26;2.80;;;1.63;;
4486;SDS011;2256;48.740;9.106;2022-07-29T03:33:53;1.70;;;1.33;;
4486;SDS011;2256;48.740;9.106;2022-07-29T03:36:20;1.40;;;1.30;;
4486;SDS011;2256;48.740;9.106;2022-07-29T03:38:48;1.50;;;1.40;;
4486;SDS011;2256;48.740;9.106;2022-07-29T03:41:16;2.00;;;1.80;;
4486;SDS011;2256;48.740;9.106;2022-07-29T03:43:44;1.93;;;1.63;;
4486;SDS011;2256;48.740;9.106;2022-07-29T03:46:13;2.03;;;1.37;;
4486;SDS011;2256;48.740;9.106;2022-07-29T03:48:42;1.57;;;1.47;;
4486;SDS011;2256;48.740;9.106;2022-07-29T03:51:14;1.70;;;1.23;;
4486;SDS011;2256;48.740;9.106;2022-07-29T03:53:41;4.43;;;1.70;;
4486;SDS011;2256;48.740;9.106;2022-07-29T03:56:10;1.60;;;1.20;;
4486;SDS011;2256;48.740;9.106;2022-07-29T03:58:41;1.40;;;1.30;;
4486;SDS011;2256;48.740;9.106;2022-07-29T04:01:08;2.80;;;1.67;;
4486;SDS011;2256;48.740;9.106;2022-07-29T04:03:35;1.30;;;1.20;;
4486;SDS011;2256;48.740;9.106;2022-07-29T04:06:03;2.17;;;1.07;;
4486;SDS011;2256;48.740;9.106;2022-07-29T04:08:31;2.73;;;2.10;;
4486;SDS011;2256;48.740;9.106;2022-07-29T04:10:59;1.27;;;1.17;;
4486;SDS011;2256;48.740;9.106;2022-07-29T04:13:27;3.83;;;1.73;;
4486;SDS011;2256;48.740;9.106;2022-07-29T04:15:54;1.87;;;1.53;;
4486;SDS011;2256;48.740;9.106;2022-07-29T04:18:21;1.23;;;1.00;;
4486;SDS011;2256;48.740;9.106;2022-07-29T04:20:48;1.67;;;1.57;;
4486;SDS011;2256;48.740;9.106;2022-07-29T04:23:15;4.17;;;1.83;;
4486;SDS011;2256;48.740;9.106;2022-07-29T04:25:42;1.90;;;1.53;;
4486;SDS011;2256;48.740;9.106;2022-07-29T04:28:09;2.60;;;2.37;;
4486;SDS011;2256;48.740;9.106;2022-07-29T04:30:38;2.33;;;1.93;;
4486;SDS011;2256;48.740;9.106;2022-07-29T04:33:05;2.50;;;2.30;;
4486;SDS011;2256;48.740;9.106;2022-07-29T04:35:34;2.53;;;1.27;;
4486;SDS011;2256;48.740;9.106;2022-07-29T04:38:02;6.93;;;1.50;;
4486;SDS011;2256;48.740;9.106;2022-07-29T04:40:29;1.50;;;1.40;;
4486;SDS011;2256;48.740;9.106;2022-07-29T04:42:58;2.33;;;2.13;;
4486;SDS011;2256;48.740;9.106;2022-07-29T04:45:25;1.50;;;1.40;;
4486;SDS011;2256;48.740;9.106;2022-07-29T04:47:53;1.80;;;1.70;;
4486;SDS011;2256;48.740;9.106;2022-07-29T04:50:20;1.70;;;1.60;;
4486;SDS011;2256;48.740;9.106;2022-07-29T04:52:47;3.10;;;1.90;;
4486;SDS011;2256;48.740;9.106;2022-07-29T04:55:14;1.63;;;1.50;;
4486;SDS011;2256;48.740;9.106;2022-07-29T04:57:41;1.40;;;1.23;;
4486;SDS011;2256;48.740;9.106;2022-07-29T05:00:08;1.20;;;1.10;;
4486;SDS011;2256;48.740;9.106;2022-07-29T05:02:35;1.20;;;1.10;;
4486;SDS011;2256;48.740;9.106;2022-07-29T05:05:04;1.23;;;1.13;;
4486;SDS011;2256;48.740;9.106;2022-07-29T05:07:32;1.90;;;1.43;;
4486;SDS011;2256;48.740;9.106;2022-07-29T05:09:59;2.77;;;1.20;;
4486;SDS011;2256;48.740;9.106;2022-07-29T05:12:26;1.30;;;1.20;;
4486;SDS011;2256;48.740;9.106;2022-07-29T05:14:53;1.70;;;1.40;;
4486;SDS011;2256;48.740;9.106;2022-07-29T05:17:20;1.33;;;1.10;;
4486;SDS011;2256;48.740;9.106;2022-07-29T05:19:46;1.43;;;1.33;;
4486;SDS011;2256;48.740;9.106;2022-07-29T05:22:16;1.70;;;1.60;;
4486;SDS011;2256;48.740;9.106;2022-07-29T05:24:44;0.90;;;0.80;;
4486;SDS011;2256;48.740;9.106;2022-07-29T05:27:11;1.23;;;1.13;;
4486;SDS011;2256;48.740;9.106;2022-07-29T05:29:38;1.20;;;1.10;;
4486;SDS011;2256;48.740;9.106;2022-07-29T05:32:05;1.30;;;1.20;;
4486;SDS011;2256;48.740;9.106;2022-07-29T05:34:32;1.47;;;1.37;;
4486;SDS011;2256;48.740;9.106;2022-07-29T05:36:59;1.13;;;1.13;;
4486;SDS011;2256;48.740;9.106;2022-07-29T05:39:27;1.17;;;1.17;;
4486;SDS011;2256;48.740;9.106;2022-07-29T05:41:54;1.23;;;1.10;;
4486;SDS011;2256;48.740;9.106;2022-07-29T05:44:21;2.30;;;1.50;;
4486;SDS011;2256;48.740;9.106;2022-07-29T05:46:47;1.47;;;1.37;;
4486;SDS011;2256;48.740;9.106;2022-07-29T05:49:14;2.60;;;1.50;;
4486;SDS011;2256;48.740;9.106;2022-07-29T05:51:41;1.50;;;1.40;;
4486;SDS011;2256;48.740;9.106;2022-07-29T05:54:08;1.40;;;1.30;;
4486;SDS011;2256;48.740;9.106;2022-07-29T05:56:37;1.53;;;1.10;;
4486;SDS011;2256;48.740;9.106;2022-07-29T05:59:03;1.27;;;1.17;;
4486;SDS011;2256;48.740;9.106;2022-07-29T06:01:30;1.73;;;1.43;;
4486;SDS011;2256;48.740;9.106;2022-07-29T06:03:57;2.30;;;1.77;;
4486;SDS011;2256;48.740;9.106;2022-07-29T06:06:24;1.50;;;1.40;;
4486;SDS011;2256;48.740;9.106;2022-07-29T06:08:51;2.30;;;1.73;;
4486;SDS011;2256;48.740;9.106;2022-07-29T06:11:18;2.50;;;2.10;;
4486;SDS011;2256;48.740;9.106;2022-07-29T06:13:46;2.00;;;1.73;;
4486;SDS011;2256;48.740;9.106;2022-07-29T06:16:13;6.63;;;1.30;;
4486;SDS011;2256;48.740;9.106;2022-07-29T06:18:40;1.53;;;1.40;;
4486;SDS011;2256;48.740;9.106;2022-07-29T06:21:07;1.03;;;1.03;;
4486;SDS011;2256;48.740;9.106;2022-07-29T06:23:35;1.53;;;1.43;;
4486;SDS011;2256;48.740;9.106;2022-07-29T06:26:03;1.93;;;1.37;;
4486;SDS011;2256;48.740;9.106;2022-07-29T06:28:30;1.40;;;1.30;;
4486;SDS011;2256;48.740;9.106;2022-07-29T06:30:59;2.23;;;1.57;;
4486;SDS011;2256;48.740;9.106;2022-07-29T06:33:26;3.20;;;1.67;;
4486;SDS011;2256;48.740;9.106;2022-07-29T06:35:54;1.40;;;1.30;;
4486;SDS011;2256;48.740;9.106;2022-07-29T06:38:20;2.67;;;2.10;;
4486;SDS011;2256;48.740;9.106;2022-07-29T06:40:47;1.50;;;1.40;;
4486;SDS011;2256;48.740;9.106;2022-07-29T06:43:27;1.30;;;1.20;;
4486;SDS011;2256;48.740;9.106;2022-07-29T06:45:59;1.70;;;1.60;;
4486;SDS011;2256;48.740;9.106;2022-07-29T06:48:27;2.57;;;1.60;;
4486;SDS011;2256;48.740;9.106;2022-07-29T06:50:54;1.50;;;1.40;;
4486;SDS011;2256;48.740;9.106;2022-07-29T06:53:21;1.80;;;1.53;;
4486;SDS011;2256;48.740;9.106;2022-07-29T06:55:48;1.73;;;1.40;;
4486;SDS011;2256;48.740;9.106;2022-07-29T06:58:15;1.67;;;1.57;;
4486;SDS011;2256;48.740;9.106;2022-07-29T07:00:45;1.40;;;1.30;;
4486;SDS011;2256;48.740;9.106;2022-07-29T07:03:13;1.70;;;1.60;;
4486;SDS011;2256;48.740;9.106;2022-07-29T07:05:40;1.87;;;1.50;;
4486;SDS011;2256;48.740;9.106;2022-07-29T07:08:07;2.27;;;1.60;;
4486;SDS011;2256;48.740;9.106;2022-07-29T07:10:34;1.20;;;1.10;;
4486;SDS011;2256;48.740;9.106;2022-07-29T07:13:01;1.57;;;1.23;;
4486;SDS011;2256;48.740;9.106;2022-07-29T07:15:28;1.40;;;1.30;;
4486;SDS011;2256;48.740;9.106;2022-07-29T07:17:55;1.80;;;1.70;;
4486;SDS011;2256;48.740;9.106;2022-07-29T07:20:24;1.73;;;1.63;;
4486;SDS011;2256;48.740;9.106;2022-07-29T07:22:51;3.10;;;1.20;;
4486;SDS011;2256;48.740;9.106;2022-07-29T07:25:18;1.73;;;1.63;;
4486;SDS011;2256;48.740;9.106;2022-07-29T07:27:45;1.70;;;1.20;;
4486;SDS011;2256;48.740;9.106;2022-07-29T07:30:12;1.53;;;1.43;;
4486;SDS011;2256;48.740;9.106;2022-07-29T07:32:40;1.80;;;1.60;;
4486;SDS011;2256;48.740;9.106;2022-07-29T07:35:07;1.63;;;1.43;;
4486;SDS011;2256;48.740;9.106;2022-07-29T07:37:37;2.00;;;1.30;;
4486;SDS011;2256;48.740;9.106;2022-07-29T07:40:05;1.30;;;1.20;;
4486;SDS011;2256;48.740;9.106;2022-07-29T07:42:33;1.60;;;1.50;;
4486;SDS011;2256;48.740;9.106;2022-07-29T07:45:00;2.30;;;1.90;;
4486;SDS011;2256;48.740;9.106;2022-07-29T07:47:27;2.37;;;1.30;;
4486;SDS011;2256;48.740;9.106;2022-07-29T07:49:54;1.70;;;1.60;;
4486;SDS011;2256;48.740;9.106;2022-07-29T07:52:21;1.40;;;1.30;;
4486;SDS011;2256;48.740;9.106;2022-07-29T07:54:49;1.93;;;1.77;;
4486;SDS011;2256;48.740;9.106;2022-07-29T07:57:18;1.43;;;1.33;;
4486;SDS011;2256;48.740;9.106;2022-07-29T07:59:44;2.80;;;2.03;;
4486;SDS011;2256;48.740;9.106;2022-07-29T08:02:11;2.23;;;1.57;;
4486;SDS011;2256;48.740;9.106;2022-07-29T08:04:38;1.90;;;1.77;;
4486;SDS011;2256;48.740;9.106;2022-07-29T08:07:06;1.60;;;1.50;;
4486;SDS011;2256;48.740;9.106;2022-07-29T08:09:33;2.63;;;1.57;;
4486;SDS011;2256;48.740;9.106;2022-07-29T08:12:02;3.87;;;1.60;;
4486;SDS011;2256;48.740;9.106;2022-07-29T08:14:30;1.80;;;1.70;;
4486;SDS011;2256;48.740;9.106;2022-07-29T08:16:58;1.47;;;1.37;;
4486;SDS011;2256;48.740;9.106;2022-07-29T08:19:25;1.53;;;1.20;;
4486;SDS011;2256;48.740;9.106;2022-07-29T08:21:52;2.73;;;1.60;;
4486;SDS011;2256;48.740;9.106;2022-07-29T08:24:19;1.67;;;1.57;;
4486;SDS011;2256;48.740;9.106;2022-07-29T08:27:05;2.20;;;1.73;;
4486;SDS011;2256;48.740;9.106;2022-07-29T08:29:32;2.10;;;1.87;;
4486;SDS011;2256;48.740;9.106;2022-07-29T08:31:59;2.53;;;2.20;;
4486;SDS011;2256;48.740;9.106;2022-07-29T08:34:25;2.40;;;1.57;;
4486;SDS011;2256;48.740;9.106;2022-07-29T08:36:53;1.90;;;1.70;;
4486;SDS011;2256;48.740;9.106;2022-07-29T08:39:20;1.50;;;1.40;;
4486;SDS011;2256;48.740;9.106;2022-07-29T08:41:47;2.00;;;1.80;;
4486;SDS011;2256;48.740;9.106;2022-07-29T08:44:17;3.03;;;1.80;;
4486;SDS011;2256;48.740;9.106;2022-07-29T08:46:44;2.20;;;1.97;;
4486;SDS011;2256;48.740;9.106;2022-07-29T08:49:11;1.50;;;1.40;;
4486;SDS011;2256;48.740;9.106;2022-07-29T08:51:38;1.60;;;1.50;;
4486;SDS011;2256;48.740;9.106;2022-07-29T08:54:07;2.70;;;1.40;;
4486;SDS011;2256;48.740;9.106;2022-07-29T08:56:35;1.30;;;1.20;;
4486;SDS011;2256;48.740;9.106;2022-07-29T08:59:04;3.10;;;1.93;;
4486;SDS011;2256;48.740;9.106;2022-07-29T09:01:33;1.70;;;1.60;;
4486;SDS011;2256;48.740;9.106;2022-07-29T09:04:03;2.53;;;1.73;;
4486;SDS011;2256;48.740;9.106;2022-07-29T09:06:32;2.23;;;2.00;;
4486;SDS011;2256;48.740;9.106;2022-07-29T09:09:03;2.47;;;1.80;;
4486;SDS011;2256;48.740;9.106;2022-07-29T09:11:31;1.40;;;1.30;;
4486;SDS011;2256;48.740;9.106;2022-07-29T09:13:58;1.60;;;1.50;;
4486;SDS011;2256;48.740;9.106;2022-07-29T09:16:25;1.87;;;1.60;;
4486;SDS011;2256;48.740;9.106;2022-07-29T09:18:53;1.87;;;1.77;;
4486;SDS011;2256;48.740;9.106;2022-07-29T09:21:20;2.07;;;1.87;;
4486;SDS011;2256;48.740;9.106;2022-07-29T09:24:13;1.80;;;1.70;;
4486;SDS011;2256;48.740;9.106;2022-07-29T09:26:41;1.90;;;1.70;;
4486;SDS011;2256;48.740;9.106;2022-07-29T09:29:09;1.60;;;1.50;;
4486;SDS011;2256;48.740;9.106;2022-07-29T09:31:38;1.77;;;1.63;;
4486;SDS011;2256;48.740;9.106;2022-07-29T09:34:07;2.00;;;1.60;;
4486;SDS011;2256;48.740;9.106;2022-07-29T09:36:38;2.30;;;1.83;;
4486;SDS011;2256;48.740;9.106;2022-07-29T09:39:06;2.20;;;2.00;;
4486;SDS011;2256;48.740;9.106;2022-07-29T09:41:44;1.97;;;1.77;;
4486;SDS011;2256;48.740;9.106;2022-07-29T09:44:12;2.13;;;1.93;;
4486;SDS011;2256;48.740;9.106;2022-07-29T09:46:40;2.20;;;2.00;;
4486;SDS011;2256;48.740;9.106;2022-07-29T09:49:19;1.57;;;1.47;;
4486;SDS011;2256;48.740;9.106;2022-07-29T09:51:46;3.13;;;1.97;;
4486;SDS011;2256;48.740;9.106;2022-07-29T09:54:22;1.83;;;1.70;;
4486;SDS011;2256;48.740;9.106;2022-07-29T09:56:49;1.70;;;1.60;;
4486;SDS011;2256;48.740;9.106;2022-07-29T09:59:16;3.00;;;1.80;;
4486;SDS011;2256;48.740;9.106;2022-07-29T10:01:45;1.80;;;1.70;;
4486;SDS011;2256;48.740;9.106;2022-07-29T10:04:12;1.50;;;1.40;;
4486;SDS011;2256;48.740;9.106;2022-07-29T10:09:33;2.30;;;2.10;;
4486;SDS011;2256;48.740;9.106;2022-07-29T10:12:04;2.67;;;1.60;;
4486;SDS011;2256;48.740;9.106;2022-07-29T10:14:33;1.47;;;1.37;;
4486;SDS011;2256;48.740;9.106;2022-07-29T10:17:02;4.30;;;2.63;;
4486;SDS011;2256;48.740;9.106;2022-07-29T10:19:29;2.20;;;1.70;;
4486;SDS011;2256;48.740;9.106;2022-07-29T10:21:58;2.00;;;1.80;;
4486;SDS011;2256;48.740;9.106;2022-07-29T10:24:26;2.23;;;2.03;;
4486;SDS011;2256;48.740;9.106;2022-07-29T10:26:55;2.40;;;1.70;;
4486;SDS011;2256;48.740;9.106;2022-07-29T10:29:23;2.57;;;2.00;;
4486;SDS011;2256;48.740;9.106;2022-07-29T10:31:52;5.13;;;2.90;;
4486;SDS011;2256;48.740;9.106;2022-07-29T10:34:31;2.70;;;2.50;;
4486;SDS011;2256;48.740;9.106;2022-07-29T10:37:03;3.63;;;2.20;;
4486;SDS011;2256;48.740;9.106;2022-07-29T10:39:40;4.60;;;2.70;;
4486;SDS011;2256;48.740;9.106;2022-07-29T10:42:18;2.23;;;1.80;;
4486;SDS011;2256;48.740;9.106;2022-07-29T10:44:49;2.30;;;2.10;;
4486;SDS011;2256;48.740;9.106;2022-07-29T10:47:19;2.00;;;1.90;;
4486;SDS011;2256;48.740;9.106;2022-07-29T10:49:57;3.40;;;2.73;;
4486;SDS011;2256;48.740;9.106;2022-07-29T10:52:25;2.37;;;2.20;;
4486;SDS011;2256;48.740;9.106;2022-07-29T10:55:31;2.93;;;2.60;;
4486;SDS011;2256;48.740;9.106;2022-07-29T10:58:12;14.23;;;2.80;;
4486;SDS011;2256;48.740;9.106;2022-07-29T11:00:40;2.63;;;2.40;;
4486;SDS011;2256;48.740;9.106;2022-07-29T11:03:06;3.97;;;2.93;;
4486;SDS011;2256;48.740;9.106;2022-07-29T11:08:27;3.10;;;2.10;;
4486;SDS011;2256;48.740;9.106;2022-07-29T11:14:07;2.87;;;2.67;;
4486;SDS011;2256;48.740;9.106;2022-07-29T11:19:27;2.90;;;1.70;;
4486;SDS011;2256;48.740;9.106;2022-07-29T11:21:54;7.43;;;2.63;;
4486;SDS011;2256;48.740;9.106;2022-07-29T11:24:22;5.70;;;3.10;;
4486;SDS011;2256;48.740;9.106;2022-07-29T11:27:09;4.10;;;2.23;;
4486;SDS011;2256;48.740;9.106;2022-07-29T11:29:52;2.60;;;2.30;;
4486;SDS011;2256;48.740;9.106;2022-07-29T11:32:21;9.70;;;3.60;;
4486;SDS011;2256;48.740;9.106;2022-07-29T11:37:37;7.10;;;3.83;;
4486;SDS011;2256;48.740;9.106;2022-07-29T11:40:08;5.10;;;2.77;;
4486;SDS011;2256;48.740;9.106;2022-07-29T11:42:40;4.50;;;2.87;;
4486;SDS011;2256;48.740;9.106;2022-07-29T11:45:16;5.20;;;3.10;;
4486;SDS011;2256;48.740;9.106;2022-07-29T11:47:51;2.63;;;2.37;;
4486;SDS011;2256;48.740;9.106;2022-07-29T11:50:32;3.17;;;2.53;;
4486;SDS011;2256;48.740;9.106;2022-07-29T11:53:01;2.40;;;2.20;;
4486;SDS011;2256;48.740;9.106;2022-07-29T11:55:29;4.63;;;2.90;;
4486;SDS011;2256;48.740;9.106;2022-07-29T11:58:00;4.07;;;2.40;;
4486;SDS011;2256;48.740;9.106;2022-07-29T12:00:30;5.37;;;3.60;;
4486;SDS011;2256;48.740;9.106;2022-07-29T12:02:58;3.03;;;2.70;;
4486;SDS011;2256;48.740;9.106;2022-07-29T12:05:36;3.10;;;1.77;;
4486;SDS011;2256;48.740;9.106;2022-07-29T12:08:06;3.30;;;2.63;;
4486;SDS011;2256;48.740;9.106;2022-07-29T12:10:34;5.53;;;2.50;;
4486;SDS011;2256;48.740;9.106;2022-07-29T12:13:02;2.20;;;1.80;;
4486;SDS011;2256;48.740;9.106;2022-07-29T12:15:30;13.43;;;3.03;;
4486;SDS011;2256;48.740;9.106;2022-07-29T12:17:57;2.90;;;2.20;;
4486;SDS011;2256;48.740;9.106;2022-07-29T12:20:24;2.90;;;2.10;;
4486;SDS011;2256;48.740;9.106;2022-07-29T12:22:53;2.57;;;2.37;;
4486;SDS011;2256;48.740;9.106;2022-07-29T12:25:21;3.60;;;3.03;;
4486;SDS011;2256;48.740;9.106;2022-07-29T12:27:59;2.00;;;1.80;;
4486;SDS011;2256;48.740;9.106;2022-07-29T12:30:41;2.70;;;2.10;;
4486;SDS011;2256;48.740;9.106;2022-07-29T12:33:11;2.70;;;2.03;;
4486;SDS011;2256;48.740;9.106;2022-07-29T12:35:39;2.70;;;1.70;;
4486;SDS011;2256;48.740;9.106;2022-07-29T12:38:08;2.53;;;2.33;;
4486;SDS011;2256;48.740;9.106;2022-07-29T12:40:36;4.17;;;2.40;;
4486;SDS011;2256;48.740;9.106;2022-07-29T12:43:07;2.47;;;2.27;;
4486;SDS011;2256;48.740;9.106;2022-07-29T12:45:35;2.80;;;2.20;;
4486;SDS011;2256;48.740;9.106;2022-07-29T12:48:04;4.80;;;2.43;;
4486;SDS011;2256;48.740;9.106;2022-07-29T12:50:33;2.47;;;1.97;;
4486;SDS011;2256;48.740;9.106;2022-07-29T12:53:10;3.90;;;2.80;;
4486;SDS011;2256;48.740;9.106;2022-07-29T12:55:39;3.80;;;2.00;;
4486;SDS011;2256;48.740;9.106;2022-07-29T12:58:07;2.60;;;1.93;;
4486;SDS011;2256;48.740;9.106;2022-07-29T13:00:34;2.23;;;2.00;;
4486;SDS011;2256;48.740;9.106;2022-07-29T13:03:01;2.00;;;1.83;;
4486;SDS011;2256;48.740;9.106;2022-07-29T13:05:40;2.90;;;2.43;;
4486;SDS011;2256;48.740;9.106;2022-07-29T13:08:09;3.20;;;2.63;;
4486;SDS011;2256;48.740;9.106;2022-07-29T13:10:37;5.07;;;2.27;;
4486;SDS011;2256;48.740;9.106;2022-07-29T13:13:05;1.97;;;1.80;;
4486;SDS011;2256;48.740;9.106;2022-07-29T13:15:34;2.90;;;2.00;;
4486;SDS011;2256;48.740;9.106;2022-07-29T13:18:02;2.13;;;1.93;;
4486;SDS011;2256;48.740;9.106;2022-07-29T13:20:31;1.70;;;1.40;;
4486;SDS011;2256;48.740;9.106;2022-07-29T13:22:58;1.77;;;1.67;;
4486;SDS011;2256;48.740;9.106;2022-07-29T13:25:26;2.33;;;1.83;;
4486;SDS011;2256;48.740;9.106;2022-07-29T13:27:54;3.27;;;1.43;;
4486;SDS011;2256;48.740;9.106;2022-07-29T13:30:21;4.70;;;2.60;;
4486;SDS011;2256;48.740;9.106;2022-07-29T13:32:49;3.20;;;1.90;;
4486;SDS011;2256;48.740;9.106;2022-07-29T13:35:19;3.07;;;2.87;;
4486;SDS011;2256;48.740;9.106;2022-07-29T13:37:46;3.53;;;2.17;;
4486;SDS011;2256;48.740;9.106;2022-07-29T13:40:13;5.47;;;1.90;;
4486;SDS011;2256;48.740;9.106;2022-07-29T13:42:40;4.47;;;2.47;;
4486;SDS011;2256;48.740;9.106;2022-07-29T13:45:07;4.50;;;2.80;;
4486;SDS011;2256;48.740;9.106;2022-07-29T13:47:35;3.40;;;2.00;;
4486;SDS011;2256;48.740;9.106;2022-07-29T13:50:03;4.93;;;2.47;;
4486;SDS011;2256;48.740;9.106;2022-07-29T13:52:32;3.30;;;2.20;;
4486;SDS011;2256;48.740;9.106;2022-07-29T13:54:59;2.93;;;2.30;;
4486;SDS011;2256;48.740;9.106;2022-07-29T13:57:26;3.07;;;2.20;;
4486;SDS011;2256;48.740;9.106;2022-07-29T13:59:53;2.60;;;2.20;;
4486;SDS011;2256;48.740;9.106;2022-07-29T14:02:20;2.90;;;2.30;;
4486;SDS011;2256;48.740;9.106;2022-07-29T14:04:47;3.57;;;2.70;;
4486;SDS011;2256;48.740;9.106;2022-07-29T14:07:15;2.43;;;2.03;;
4486;SDS011;2256;48.740;9.106;2022-07-29T14:09:43;3.40;;;2.40;;
4486;SDS011;2256;48.740;9.106;2022-07-29T14:12:10;2.90;;;2.67;;
4486;SDS011;2256;48.740;9.106;2022-07-29T14:14:37;3.80;;;2.90;;
4486;SDS011;2256;48.740;9.106;2022-07-29T14:17:04;5.73;;;3.20;;
4486;SDS011;2256;48.740;9.106;2022-07-29T14:19:32;3.93;;;2.73;;
4486;SDS011;2256;48.740;9.106;2022-07-29T14:22:00;5.50;;;3.03;;
4486;SDS011;2256;48.740;9.106;2022-07-29T14:24:28;4.63;;;3.60;;
4486;SDS011;2256;48.740;9.106;2022-07-29T14:26:56;2.80;;;1.97;;
4486;SDS011;2256;48.740;9.106;2022-07-29T14:29:23;2.20;;;2.00;;
4486;SDS011;2256;48.740;9.106;2022-07-29T14:31:50;3.30;;;2.67;;
4486;SDS011;2256;48.740;9.106;2022-07-29T14:34:17;4.33;;;2.90;;
4486;SDS011;2256;48.740;9.106;2022-07-29T14:36:43;3.33;;;2.70;;
4486;SDS011;2256;48.740;9.106;2022-07-29T14:39:10;3.33;;;2.60;;
4486;SDS011;2256;48.740;9.106;2022-07-29T14:41:37;2.20;;;2.00;;
4486;SDS011;2256;48.740;9.106;2022-07-29T14:44:05;3.50;;;2.87;;
4486;SDS011;2256;48.740;9.106;2022-07-29T14:46:32;2.30;;;2.13;;
4486;SDS011;2256;48.740;9.106;2022-07-29T14:48:59;6.03;;;2.40;;
4486;SDS011;2256;48.740;9.106;2022-07-29T14:51:25;4.73;;;3.40;;
4486;SDS011;2256;48.740;9.106;2022-07-29T14:53:52;2.40;;;2.20;;
4486;SDS011;2256;48.740;9.106;2022-07-29T14:56:21;2.07;;;1.97;;
4486;SDS011;2256;48.740;9.106;2022-07-29T14:58:48;2.50;;;2.10;;
4486;SDS011;2256;48.740;9.106;2022-07-29T15:01:16;2.03;;;1.90;;
4486;SDS011;2256;48.740;9.106;2022-07-29T15:03:43;2.77;;;2.33;;
4486;SDS011;2256;48.740;9.106;2022-07-29T15:06:09;2.30;;;2.10;;
4486;SDS011;2256;48.740;9.106;2022-07-29T15:08:36;2.33;;;2.13;;
4486;SDS011;2256;48.740;9.106;2022-07-29T15:11:03;4.30;;;2.33;;
4486;SDS011;2256;48.740;9.106;2022-07-29T15:13:30;2.70;;;2.40;;
4486;SDS011;2256;48.740;9.106;2022-07-29T15:15:56;3.03;;;2.40;;
4486;SDS011;2256;48.740;9.106;2022-07-29T15:18:25;2.20;;;2.00;;
4486;SDS011;2256;48.740;9.106;2022-07-29T15:20:51;4.20;;;2.90;;
4486;SDS011;2256;48.740;9.106;2022-07-29T15:23:18;2.60;;;2.40;;
4486;SDS011;2256;48.740;9.106;2022-07-29T15:25:45;2.77;;;2.20;;
4486;SDS011;2256;48.740;9.106;2022-07-29T15:28:12;2.40;;;2.20;;
4486;SDS011;2256;48.740;9.106;2022-07-29T15:30:39;2.53;;;2.33;;
4486;SDS011;2256;48.740;9.106;2022-07-29T15:33:07;2.53;;;2.03;;
4486;SDS011;2256;48.740;9.106;2022-07-29T15:35:36;3.20;;;2.83;;
4486;SDS011;2256;48.740;9.106;2022-07-29T15:38:03;2.30;;;2.00;;
4486;SDS011;2256;48.740;9.106;2022-07-29T15:40:30;5.40;;;2.63;;
4486;SDS011;2256;48.740;9.106;2022-07-29T15:42:57;3.90;;;2.67;;